Terminal Aerodrome Forecast
Issued by NWS

Home | Current Version | Previous Version | Text Only | Print | Product List | Glossary On
Versions: 1 2 3 4 5 6 7 8 9 10 11 12 13 14 15
000
FTUS44 KLIX 020500 RRA
TAFGPT
TAF
KGPT 020540Z 0206/0306 04008KT 3SM -RA BR OVC004
      TEMPO 0206/0209 2SM RA BR BKN008 OVC020
     FM020900 12004KT 1/4SM FG OVC003
     FM021500 13004KT 2SM BR OVC003
     FM021800 14005KT 5SM BR BKN005
     FM022100 16005KT P6SM BKN008=

USA.gov is the U.S. government's official web portal to all federal, state and local government web resources and services.